sensor_id;sensor_type;location;lat;lon;timestamp;P1;durP1;ratioP1;P2;durP2;ratioP2
32321;SDS011;61553;48.994;8.940;2022-08-21T00:01:10;7.65;;;2.50;;
32321;SDS011;61553;48.994;8.940;2022-08-21T00:03:38;6.70;;;2.58;;
32321;SDS011;61553;48.994;8.940;2022-08-21T00:06:04;5.75;;;2.30;;
32321;SDS011;61553;48.994;8.940;2022-08-21T00:08:30;6.60;;;2.67;;
32321;SDS011;61553;48.994;8.940;2022-08-21T00:10:55;4.05;;;2.25;;
32321;SDS011;61553;48.994;8.940;2022-08-21T00:13:21;6.90;;;2.65;;
32321;SDS011;61553;48.994;8.940;2022-08-21T00:15:47;3.60;;;2.25;;
32321;SDS011;61553;48.994;8.940;2022-08-21T00:18:14;5.55;;;2.88;;
32321;SDS011;61553;48.994;8.940;2022-08-21T00:20:40;5.38;;;2.60;;
32321;SDS011;61553;48.994;8.940;2022-08-21T00:23:08;5.22;;;2.40;;
32321;SDS011;61553;48.994;8.940;2022-08-21T00:25:34;4.70;;;2.10;;
32321;SDS011;61553;48.994;8.940;2022-08-21T00:27:59;5.95;;;2.50;;
32321;SDS011;61553;48.994;8.940;2022-08-21T00:30:26;6.38;;;2.45;;
32321;SDS011;61553;48.994;8.940;2022-08-21T00:32:53;5.57;;;2.40;;
32321;SDS011;61553;48.994;8.940;2022-08-21T00:35:22;5.25;;;2.53;;
32321;SDS011;61553;48.994;8.940;2022-08-21T00:37:50;4.65;;;2.40;;
32321;SDS011;61553;48.994;8.940;2022-08-21T00:40:18;4.45;;;2.10;;
32321;SDS011;61553;48.994;8.940;2022-08-21T00:42:46;6.32;;;2.63;;
32321;SDS011;61553;48.994;8.940;2022-08-21T00:45:11;7.55;;;2.83;;
32321;SDS011;61553;48.994;8.940;2022-08-21T00:47:38;6.65;;;2.97;;
32321;SDS011;61553;48.994;8.940;2022-08-21T00:50:04;7.80;;;2.58;;
32321;SDS011;61553;48.994;8.940;2022-08-21T00:52:32;7.57;;;2.60;;
32321;SDS011;61553;48.994;8.940;2022-08-21T00:55:00;5.78;;;2.45;;
32321;SDS011;61553;48.994;8.940;2022-08-21T00:57:30;8.95;;;2.92;;
32321;SDS011;61553;48.994;8.940;2022-08-21T01:00:01;4.15;;;2.55;;
32321;SDS011;61553;48.994;8.940;2022-08-21T01:02:33;9.18;;;2.38;;
32321;SDS011;61553;48.994;8.940;2022-08-21T01:04:59;7.38;;;2.78;;
32321;SDS011;61553;48.994;8.940;2022-08-21T01:07:25;6.35;;;2.53;;
32321;SDS011;61553;48.994;8.940;2022-08-21T01:09:50;5.40;;;2.65;;
32321;SDS011;61553;48.994;8.940;2022-08-21T01:12:17;8.25;;;3.30;;
32321;SDS011;61553;48.994;8.940;2022-08-21T01:14:43;6.55;;;2.83;;
32321;SDS011;61553;48.994;8.940;2022-08-21T01:17:10;6.07;;;2.60;;
32321;SDS011;61553;48.994;8.940;2022-08-21T01:19:38;7.05;;;2.63;;
32321;SDS011;61553;48.994;8.940;2022-08-21T01:22:05;5.43;;;2.83;;
32321;SDS011;61553;48.994;8.940;2022-08-21T01:24:31;7.28;;;3.15;;
32321;SDS011;61553;48.994;8.940;2022-08-21T01:26:58;4.43;;;2.58;;
32321;SDS011;61553;48.994;8.940;2022-08-21T01:29:36;6.78;;;2.88;;
32321;SDS011;61553;48.994;8.940;2022-08-21T01:32:08;5.00;;;2.55;;
32321;SDS011;61553;48.994;8.940;2022-08-21T01:34:40;7.07;;;2.85;;
32321;SDS011;61553;48.994;8.940;2022-08-21T01:37:08;6.43;;;3.40;;
32321;SDS011;61553;48.994;8.940;2022-08-21T01:39:34;4.68;;;2.78;;
32321;SDS011;61553;48.994;8.940;2022-08-21T01:42:00;6.55;;;2.85;;
32321;SDS011;61553;48.994;8.940;2022-08-21T01:44:27;5.07;;;2.88;;
32321;SDS011;61553;48.994;8.940;2022-08-21T01:46:54;7.22;;;2.85;;
32321;SDS011;61553;48.994;8.940;2022-08-21T01:49:22;5.03;;;3.13;;
32321;SDS011;61553;48.994;8.940;2022-08-21T01:51:47;5.93;;;2.90;;
32321;SDS011;61553;48.994;8.940;2022-08-21T01:54:13;5.68;;;3.13;;
32321;SDS011;61553;48.994;8.940;2022-08-21T01:56:44;5.90;;;2.83;;
32321;SDS011;61553;48.994;8.940;2022-08-21T01:59:11;5.00;;;2.83;;
32321;SDS011;61553;48.994;8.940;2022-08-21T02:01:37;5.95;;;3.05;;
32321;SDS011;61553;48.994;8.940;2022-08-21T02:04:04;6.35;;;3.05;;
32321;SDS011;61553;48.994;8.940;2022-08-21T02:06:32;5.57;;;3.10;;
32321;SDS011;61553;48.994;8.940;2022-08-21T02:08:58;5.05;;;2.75;;
32321;SDS011;61553;48.994;8.940;2022-08-21T02:11:23;6.57;;;3.15;;
32321;SDS011;61553;48.994;8.940;2022-08-21T02:13:49;9.27;;;3.63;;
32321;SDS011;61553;48.994;8.940;2022-08-21T02:16:15;5.07;;;2.88;;
32321;SDS011;61553;48.994;8.940;2022-08-21T02:18:41;6.45;;;3.28;;
32321;SDS011;61553;48.994;8.940;2022-08-21T02:21:06;5.45;;;3.05;;
32321;SDS011;61553;48.994;8.940;2022-08-21T02:23:33;7.43;;;3.10;;
32321;SDS011;61553;48.994;8.940;2022-08-21T02:25:59;5.35;;;2.80;;
32321;SDS011;61553;48.994;8.940;2022-08-21T02:28:26;9.10;;;3.53;;
32321;SDS011;61553;48.994;8.940;2022-08-21T02:30:52;6.43;;;3.35;;
32321;SDS011;61553;48.994;8.940;2022-08-21T02:33:19;7.30;;;3.17;;
32321;SDS011;61553;48.994;8.940;2022-08-21T02:35:46;5.25;;;3.08;;
32321;SDS011;61553;48.994;8.940;2022-08-21T02:38:14;9.73;;;3.60;;
32321;SDS011;61553;48.994;8.940;2022-08-21T02:40:46;5.50;;;3.22;;
32321;SDS011;61553;48.994;8.940;2022-08-21T02:43:14;6.80;;;3.80;;
32321;SDS011;61553;48.994;8.940;2022-08-21T02:45:40;6.72;;;3.20;;
32321;SDS011;61553;48.994;8.940;2022-08-21T02:48:07;8.70;;;3.75;;
32321;SDS011;61553;48.994;8.940;2022-08-21T02:50:35;6.22;;;3.08;;
32321;SDS011;61553;48.994;8.940;2022-08-21T02:53:04;5.93;;;2.95;;
32321;SDS011;61553;48.994;8.940;2022-08-21T02:55:31;7.18;;;3.22;;
32321;SDS011;61553;48.994;8.940;2022-08-21T02:57:58;8.70;;;3.58;;
32321;SDS011;61553;48.994;8.940;2022-08-21T03:00:25;10.52;;;3.90;;
32321;SDS011;61553;48.994;8.940;2022-08-21T03:02:53;6.65;;;3.88;;
32321;SDS011;61553;48.994;8.940;2022-08-21T03:05:20;7.85;;;3.28;;
32321;SDS011;61553;48.994;8.940;2022-08-21T03:07:46;9.57;;;3.92;;
32321;SDS011;61553;48.994;8.940;2022-08-21T03:10:12;7.22;;;3.80;;
32321;SDS011;61553;48.994;8.940;2022-08-21T03:12:39;5.82;;;3.25;;
32321;SDS011;61553;48.994;8.940;2022-08-21T03:15:08;7.20;;;3.60;;
32321;SDS011;61553;48.994;8.940;2022-08-21T03:17:36;7.32;;;3.70;;
32321;SDS011;61553;48.994;8.940;2022-08-21T03:20:03;6.38;;;3.45;;
32321;SDS011;61553;48.994;8.940;2022-08-21T03:22:30;11.15;;;4.00;;
32321;SDS011;61553;48.994;8.940;2022-08-21T03:24:57;9.25;;;4.20;;
32321;SDS011;61553;48.994;8.940;2022-08-21T03:27:23;9.57;;;4.18;;
32321;SDS011;61553;48.994;8.940;2022-08-21T03:29:49;7.03;;;3.53;;
32321;SDS011;61553;48.994;8.940;2022-08-21T03:32:15;7.78;;;3.75;;
32321;SDS011;61553;48.994;8.940;2022-08-21T03:34:40;10.05;;;4.18;;
32321;SDS011;61553;48.994;8.940;2022-08-21T03:37:07;5.35;;;3.35;;
32321;SDS011;61553;48.994;8.940;2022-08-21T03:39:34;9.80;;;4.53;;
32321;SDS011;61553;48.994;8.940;2022-08-21T03:42:00;7.90;;;4.45;;
32321;SDS011;61553;48.994;8.940;2022-08-21T03:44:26;9.40;;;3.80;;
32321;SDS011;61553;48.994;8.940;2022-08-21T03:46:53;10.82;;;4.05;;
32321;SDS011;61553;48.994;8.940;2022-08-21T03:49:20;7.35;;;3.58;;
32321;SDS011;61553;48.994;8.940;2022-08-21T03:51:45;6.60;;;3.22;;
32321;SDS011;61553;48.994;8.940;2022-08-21T03:54:11;7.07;;;3.63;;
32321;SDS011;61553;48.994;8.940;2022-08-21T03:56:37;7.75;;;3.92;;
32321;SDS011;61553;48.994;8.940;2022-08-21T03:59:04;6.55;;;4.10;;
32321;SDS011;61553;48.994;8.940;2022-08-21T04:01:30;5.78;;;3.78;;
32321;SDS011;61553;48.994;8.940;2022-08-21T04:03:56;6.40;;;3.40;;
32321;SDS011;61553;48.994;8.940;2022-08-21T04:06:21;6.75;;;3.53;;
32321;SDS011;61553;48.994;8.940;2022-08-21T04:08:47;8.20;;;3.42;;
32321;SDS011;61553;48.994;8.940;2022-08-21T04:11:13;10.98;;;4.05;;
32321;SDS011;61553;48.994;8.940;2022-08-21T04:13:40;9.95;;;4.40;;
32321;SDS011;61553;48.994;8.940;2022-08-21T04:16:06;6.90;;;3.60;;
32321;SDS011;61553;48.994;8.940;2022-08-21T04:18:32;7.88;;;4.25;;
32321;SDS011;61553;48.994;8.940;2022-08-21T04:20:58;6.97;;;4.03;;
32321;SDS011;61553;48.994;8.940;2022-08-21T04:23:25;7.97;;;3.78;;
32321;SDS011;61553;48.994;8.940;2022-08-21T04:25:52;6.93;;;3.70;;
32321;SDS011;61553;48.994;8.940;2022-08-21T04:28:19;7.57;;;3.65;;
32321;SDS011;61553;48.994;8.940;2022-08-21T04:30:45;12.20;;;3.72;;
32321;SDS011;61553;48.994;8.940;2022-08-21T04:33:11;6.50;;;3.92;;
32321;SDS011;61553;48.994;8.940;2022-08-21T04:35:37;11.73;;;4.53;;
32321;SDS011;61553;48.994;8.940;2022-08-21T04:38:02;6.25;;;3.88;;
32321;SDS011;61553;48.994;8.940;2022-08-21T04:40:28;9.02;;;4.32;;
32321;SDS011;61553;48.994;8.940;2022-08-21T04:42:55;7.68;;;3.83;;
32321;SDS011;61553;48.994;8.940;2022-08-21T04:45:32;6.88;;;3.47;;
32321;SDS011;61553;48.994;8.940;2022-08-21T04:48:11;6.88;;;3.70;;
32321;SDS011;61553;48.994;8.940;2022-08-21T04:50:42;6.80;;;3.63;;
32321;SDS011;61553;48.994;8.940;2022-08-21T04:53:15;6.40;;;3.80;;
32321;SDS011;61553;48.994;8.940;2022-08-21T04:55:45;8.52;;;3.97;;
32321;SDS011;61553;48.994;8.940;2022-08-21T04:58:12;8.38;;;3.88;;
32321;SDS011;61553;48.994;8.940;2022-08-21T05:00:42;6.18;;;3.65;;
32321;SDS011;61553;48.994;8.940;2022-08-21T05:03:09;6.65;;;4.07;;
32321;SDS011;61553;48.994;8.940;2022-08-21T05:05:37;6.78;;;3.90;;
32321;SDS011;61553;48.994;8.940;2022-08-21T05:08:04;10.88;;;3.80;;
32321;SDS011;61553;48.994;8.940;2022-08-21T05:10:32;8.82;;;4.18;;
32321;SDS011;61553;48.994;8.940;2022-08-21T05:12:58;9.63;;;4.45;;
32321;SDS011;61553;48.994;8.940;2022-08-21T05:15:25;11.70;;;5.00;;
32321;SDS011;61553;48.994;8.940;2022-08-21T05:17:51;6.60;;;3.67;;
32321;SDS011;61553;48.994;8.940;2022-08-21T05:20:17;7.75;;;4.07;;
32321;SDS011;61553;48.994;8.940;2022-08-21T05:22:44;7.32;;;4.05;;
32321;SDS011;61553;48.994;8.940;2022-08-21T05:25:10;8.93;;;4.32;;
32321;SDS011;61553;48.994;8.940;2022-08-21T05:27:37;6.80;;;3.65;;
32321;SDS011;61553;48.994;8.940;2022-08-21T05:30:03;7.05;;;4.18;;
32321;SDS011;61553;48.994;8.940;2022-08-21T05:32:30;9.32;;;4.60;;
32321;SDS011;61553;48.994;8.940;2022-08-21T05:34:56;6.75;;;4.10;;
32321;SDS011;61553;48.994;8.940;2022-08-21T05:37:21;9.30;;;4.40;;
32321;SDS011;61553;48.994;8.940;2022-08-21T05:39:47;9.52;;;4.05;;
32321;SDS011;61553;48.994;8.940;2022-08-21T05:42:13;6.88;;;3.88;;
32321;SDS011;61553;48.994;8.940;2022-08-21T05:44:38;7.38;;;3.90;;
32321;SDS011;61553;48.994;8.940;2022-08-21T05:47:05;6.45;;;3.72;;
32321;SDS011;61553;48.994;8.940;2022-08-21T05:49:32;7.65;;;3.78;;
32321;SDS011;61553;48.994;8.940;2022-08-21T05:51:58;7.65;;;3.78;;
32321;SDS011;61553;48.994;8.940;2022-08-21T05:54:24;8.77;;;3.80;;
32321;SDS011;61553;48.994;8.940;2022-08-21T05:56:49;11.57;;;4.15;;
32321;SDS011;61553;48.994;8.940;2022-08-21T05:59:15;6.25;;;3.53;;
32321;SDS011;61553;48.994;8.940;2022-08-21T06:01:41;8.80;;;4.32;;
32321;SDS011;61553;48.994;8.940;2022-08-21T06:04:06;8.65;;;3.65;;
32321;SDS011;61553;48.994;8.940;2022-08-21T06:06:33;10.35;;;3.63;;
32321;SDS011;61553;48.994;8.940;2022-08-21T06:08:59;9.45;;;3.55;;
32321;SDS011;61553;48.994;8.940;2022-08-21T06:11:25;5.95;;;3.40;;
32321;SDS011;61553;48.994;8.940;2022-08-21T06:13:51;7.95;;;3.25;;
32321;SDS011;61553;48.994;8.940;2022-08-21T06:16:17;8.15;;;3.67;;
32321;SDS011;61553;48.994;8.940;2022-08-21T06:18:43;8.13;;;3.70;;
32321;SDS011;61553;48.994;8.940;2022-08-21T06:21:10;8.48;;;3.58;;
32321;SDS011;61553;48.994;8.940;2022-08-21T06:23:36;5.47;;;2.97;;
32321;SDS011;61553;48.994;8.940;2022-08-21T06:26:02;9.38;;;3.40;;
32321;SDS011;61553;48.994;8.940;2022-08-21T06:28:30;9.45;;;3.25;;
32321;SDS011;61553;48.994;8.940;2022-08-21T06:30:56;6.28;;;3.08;;
32321;SDS011;61553;48.994;8.940;2022-08-21T06:33:22;5.70;;;2.88;;
32321;SDS011;61553;48.994;8.940;2022-08-21T06:35:48;9.70;;;3.40;;
32321;SDS011;61553;48.994;8.940;2022-08-21T06:38:15;8.27;;;2.95;;
32321;SDS011;61553;48.994;8.940;2022-08-21T06:40:41;6.35;;;2.92;;
32321;SDS011;61553;48.994;8.940;2022-08-21T06:43:07;7.03;;;2.90;;
32321;SDS011;61553;48.994;8.940;2022-08-21T06:45:35;7.03;;;2.80;;
32321;SDS011;61553;48.994;8.940;2022-08-21T06:48:01;6.03;;;2.50;;
32321;SDS011;61553;48.994;8.940;2022-08-21T06:50:27;5.75;;;2.30;;
32321;SDS011;61553;48.994;8.940;2022-08-21T06:53:09;7.55;;;2.88;;
32321;SDS011;61553;48.994;8.940;2022-08-21T06:55:37;7.90;;;2.75;;
32321;SDS011;61553;48.994;8.940;2022-08-21T06:58:03;5.95;;;2.85;;
32321;SDS011;61553;48.994;8.940;2022-08-21T07:00:30;6.80;;;2.78;;
32321;SDS011;61553;48.994;8.940;2022-08-21T07:02:56;9.10;;;2.90;;
32321;SDS011;61553;48.994;8.940;2022-08-21T07:05:25;7.82;;;3.00;;
32321;SDS011;61553;48.994;8.940;2022-08-21T07:07:51;5.90;;;2.50;;
32321;SDS011;61553;48.994;8.940;2022-08-21T07:10:17;6.40;;;2.20;;
32321;SDS011;61553;48.994;8.940;2022-08-21T07:12:43;5.47;;;2.50;;
32321;SDS011;61553;48.994;8.940;2022-08-21T07:15:09;6.88;;;2.35;;
32321;SDS011;61553;48.994;8.940;2022-08-21T07:17:35;5.25;;;2.60;;
32321;SDS011;61553;48.994;8.940;2022-08-21T07:20:00;7.28;;;2.70;;
32321;SDS011;61553;48.994;8.940;2022-08-21T07:22:27;6.53;;;2.47;;
32321;SDS011;61553;48.994;8.940;2022-08-21T07:24:54;7.25;;;2.97;;
32321;SDS011;61553;48.994;8.940;2022-08-21T07:27:19;5.35;;;2.22;;
32321;SDS011;61553;48.994;8.940;2022-08-21T07:29:45;6.30;;;2.60;;
32321;SDS011;61553;48.994;8.940;2022-08-21T07:32:10;5.88;;;2.58;;
32321;SDS011;61553;48.994;8.940;2022-08-21T07:34:36;6.18;;;2.60;;
32321;SDS011;61553;48.994;8.940;2022-08-21T07:37:02;7.57;;;2.85;;
32321;SDS011;61553;48.994;8.940;2022-08-21T07:39:28;6.78;;;2.70;;
32321;SDS011;61553;48.994;8.940;2022-08-21T07:41:53;6.35;;;2.78;;
32321;SDS011;61553;48.994;8.940;2022-08-21T07:44:19;6.85;;;3.00;;
32321;SDS011;61553;48.994;8.940;2022-08-21T07:46:44;5.63;;;2.78;;
32321;SDS011;61553;48.994;8.940;2022-08-21T07:49:10;8.88;;;3.40;;
32321;SDS011;61553;48.994;8.940;2022-08-21T07:51:35;9.82;;;3.03;;
32321;SDS011;61553;48.994;8.940;2022-08-21T07:54:01;7.30;;;2.95;;
32321;SDS011;61553;48.994;8.940;2022-08-21T07:56:27;7.28;;;2.88;;
32321;SDS011;61553;48.994;8.940;2022-08-21T07:58:54;8.07;;;2.80;;
32321;SDS011;61553;48.994;8.940;2022-08-21T08:01:22;8.68;;;2.50;;
32321;SDS011;61553;48.994;8.940;2022-08-21T08:03:48;6.45;;;2.47;;
32321;SDS011;61553;48.994;8.940;2022-08-21T08:06:14;6.20;;;3.05;;
32321;SDS011;61553;48.994;8.940;2022-08-21T08:08:43;6.20;;;2.90;;
32321;SDS011;61553;48.994;8.940;2022-08-21T08:11:10;5.75;;;2.70;;
32321;SDS011;61553;48.994;8.940;2022-08-21T08:13:45;6.57;;;2.95;;
32321;SDS011;61553;48.994;8.940;2022-08-21T08:16:12;7.10;;;2.53;;
32321;SDS011;61553;48.994;8.940;2022-08-21T08:18:39;9.13;;;2.75;;
32321;SDS011;61553;48.994;8.940;2022-08-21T08:21:06;6.22;;;2.50;;
32321;SDS011;61553;48.994;8.940;2022-08-21T08:23:32;6.45;;;2.72;;
32321;SDS011;61553;48.994;8.940;2022-08-21T08:25:58;7.40;;;2.92;;
32321;SDS011;61553;48.994;8.940;2022-08-21T08:28:25;5.10;;;2.75;;
32321;SDS011;61553;48.994;8.940;2022-08-21T08:30:52;7.70;;;3.20;;
32321;SDS011;61553;48.994;8.940;2022-08-21T08:33:17;7.22;;;2.95;;
32321;SDS011;61553;48.994;8.940;2022-08-21T08:35:45;6.35;;;2.67;;
32321;SDS011;61553;48.994;8.940;2022-08-21T08:38:12;5.72;;;2.88;;
32321;SDS011;61553;48.994;8.940;2022-08-21T08:43:37;6.20;;;2.83;;
32321;SDS011;61553;48.994;8.940;2022-08-21T08:46:06;6.63;;;2.92;;
32321;SDS011;61553;48.994;8.940;2022-08-21T08:49:11;5.03;;;2.47;;
32321;SDS011;61553;48.994;8.940;2022-08-21T08:54:25;8.85;;;2.85;;
32321;SDS011;61553;48.994;8.940;2022-08-21T08:56:59;8.02;;;3.80;;
32321;SDS011;61553;48.994;8.940;2022-08-21T08:59:27;6.47;;;3.30;;
32321;SDS011;61553;48.994;8.940;2022-08-21T09:02:20;7.57;;;2.97;;
32321;SDS011;61553;48.994;8.940;2022-08-21T09:04:48;6.30;;;3.03;;
32321;SDS011;61553;48.994;8.940;2022-08-21T09:10:16;6.38;;;3.25;;
32321;SDS011;61553;48.994;8.940;2022-08-21T09:15:54;5.93;;;2.83;;
32321;SDS011;61553;48.994;8.940;2022-08-21T09:24:00;6.53;;;3.20;;
32321;SDS011;61553;48.994;8.940;2022-08-21T09:27:27;6.70;;;3.15;;
32321;SDS011;61553;48.994;8.940;2022-08-21T09:29:33;7.05;;;2.88;;
32321;SDS011;61553;48.994;8.940;2022-08-21T09:32:03;8.77;;;3.13;;
32321;SDS011;61553;48.994;8.940;2022-08-21T09:34:33;7.00;;;3.20;;
32321;SDS011;61553;48.994;8.940;2022-08-21T09:36:59;6.50;;;3.13;;
32321;SDS011;61553;48.994;8.940;2022-08-21T09:39:27;6.72;;;3.13;;
32321;SDS011;61553;48.994;8.940;2022-08-21T09:41:56;5.95;;;3.08;;
32321;SDS011;61553;48.994;8.940;2022-08-21T09:44:26;4.72;;;2.88;;
32321;SDS011;61553;48.994;8.940;2022-08-21T09:46:53;6.50;;;3.05;;
32321;SDS011;61553;48.994;8.940;2022-08-21T09:49:33;5.85;;;3.03;;
32321;SDS011;61553;48.994;8.940;2022-08-21T09:52:02;6.55;;;3.13;;
32321;SDS011;61553;48.994;8.940;2022-08-21T09:54:35;6.55;;;2.88;;
32321;SDS011;61553;48.994;8.940;2022-08-21T09:59:53;7.60;;;3.38;;
32321;SDS011;61553;48.994;8.940;2022-08-21T10:05:07;7.47;;;3.50;;
32321;SDS011;61553;48.994;8.940;2022-08-21T10:07:41;5.88;;;2.97;;
32321;SDS011;61553;48.994;8.940;2022-08-21T10:10:29;7.13;;;3.00;;
32321;SDS011;61553;48.994;8.940;2022-08-21T10:13:06;6.47;;;2.65;;
32321;SDS011;61553;48.994;8.940;2022-08-21T10:16:02;7.28;;;3.20;;
32321;SDS011;61553;48.994;8.940;2022-08-21T10:21:49;5.70;;;3.28;;
32321;SDS011;61553;48.994;8.940;2022-08-21T10:24:13;7.45;;;2.72;;
32321;SDS011;61553;48.994;8.940;2022-08-21T10:29:42;7.20;;;2.88;;
32321;SDS011;61553;48.994;8.940;2022-08-21T10:32:21;6.95;;;3.30;;
32321;SDS011;61553;48.994;8.940;2022-08-21T10:57:04;6.60;;;3.40;;
32321;SDS011;61553;48.994;8.940;2022-08-21T10:59:39;6.72;;;3.20;;
32321;SDS011;61553;48.994;8.940;2022-08-21T11:02:13;9.43;;;3.30;;
32321;SDS011;61553;48.994;8.940;2022-08-21T11:10:10;8.68;;;3.30;;
32321;SDS011;61553;48.994;8.940;2022-08-21T11:13:17;7.90;;;3.17;;
32321;SDS011;61553;48.994;8.940;2022-08-21T11:15:50;5.20;;;2.67;;
32321;SDS011;61553;48.994;8.940;2022-08-21T11:18:44;7.97;;;3.22;;
32321;SDS011;61553;48.994;8.940;2022-08-21T11:21:51;9.73;;;3.42;;
32321;SDS011;61553;48.994;8.940;2022-08-21T11:24:40;9.45;;;3.72;;
32321;SDS011;61553;48.994;8.940;2022-08-21T11:29:59;8.00;;;3.10;;
32321;SDS011;61553;48.994;8.940;2022-08-21T11:35:16;9.70;;;3.25;;
32321;SDS011;61553;48.994;8.940;2022-08-21T11:46:58;9.02;;;3.50;;
32321;SDS011;61553;48.994;8.940;2022-08-21T11:49:38;8.65;;;3.40;;
32321;SDS011;61553;48.994;8.940;2022-08-21T11:55:03;8.55;;;3.10;;
32321;SDS011;61553;48.994;8.940;2022-08-21T12:00:26;10.63;;;3.03;;
32321;SDS011;61553;48.994;8.940;2022-08-21T12:02:55;7.70;;;3.35;;
32321;SDS011;61553;48.994;8.940;2022-08-21T12:05:27;6.43;;;3.00;;
32321;SDS011;61553;48.994;8.940;2022-08-21T12:08:27;8.85;;;3.33;;
32321;SDS011;61553;48.994;8.940;2022-08-21T12:13:26;8.23;;;3.25;;
32321;SDS011;61553;48.994;8.940;2022-08-21T12:16:16;8.73;;;3.08;;
32321;SDS011;61553;48.994;8.940;2022-08-21T12:18:41;9.80;;;3.33;;
32321;SDS011;61553;48.994;8.940;2022-08-21T12:26:25;6.38;;;3.20;;
32321;SDS011;61553;48.994;8.940;2022-08-21T12:29:07;8.35;;;3.30;;
32321;SDS011;61553;48.994;8.940;2022-08-21T12:31:47;6.95;;;3.08;;
32321;SDS011;61553;48.994;8.940;2022-08-21T12:34:18;10.75;;;3.50;;
32321;SDS011;61553;48.994;8.940;2022-08-21T12:36:53;6.53;;;2.72;;
32321;SDS011;61553;48.994;8.940;2022-08-21T12:39:24;6.97;;;2.97;;
32321;SDS011;61553;48.994;8.940;2022-08-21T12:41:59;5.82;;;2.88;;
32321;SDS011;61553;48.994;8.940;2022-08-21T12:44:36;19.80;;;3.58;;
32321;SDS011;61553;48.994;8.940;2022-08-21T12:47:15;8.30;;;3.55;;
32321;SDS011;61553;48.994;8.940;2022-08-21T12:49:58;5.65;;;2.95;;
32321;SDS011;61553;48.994;8.940;2022-08-21T12:53:09;8.77;;;3.53;;
32321;SDS011;61553;48.994;8.940;2022-08-21T12:55:46;8.88;;;2.88;;
32321;SDS011;61553;48.994;8.940;2022-08-21T12:58:22;8.93;;;3.33;;
32321;SDS011;61553;48.994;8.940;2022-08-21T13:00:53;11.65;;;3.35;;
32321;SDS011;61553;48.994;8.940;2022-08-21T13:03:22;8.30;;;3.25;;
32321;SDS011;61553;48.994;8.940;2022-08-21T13:05:48;8.43;;;3.13;;
32321;SDS011;61553;48.994;8.940;2022-08-21T13:08:18;7.57;;;3.20;;
32321;SDS011;61553;48.994;8.940;2022-08-21T13:10:46;5.85;;;2.95;;
32321;SDS011;61553;48.994;8.940;2022-08-21T13:13:21;9.02;;;3.33;;
32321;SDS011;61553;48.994;8.940;2022-08-21T13:15:56;6.82;;;2.90;;
32321;SDS011;61553;48.994;8.940;2022-08-21T13:18:29;6.30;;;3.22;;
32321;SDS011;61553;48.994;8.940;2022-08-21T13:21:15;7.45;;;3.10;;
32321;SDS011;61553;48.994;8.940;2022-08-21T13:23:41;7.50;;;3.22;;
32321;SDS011;61553;48.994;8.940;2022-08-21T13:26:14;8.27;;;2.92;;
32321;SDS011;61553;48.994;8.940;2022-08-21T13:28:42;8.15;;;3.20;;
32321;SDS011;61553;48.994;8.940;2022-08-21T13:31:09;5.80;;;2.78;;
32321;SDS011;61553;48.994;8.940;2022-08-21T13:33:35;6.60;;;2.55;;
32321;SDS011;61553;48.994;8.940;2022-08-21T13:36:04;7.47;;;3.72;;
32321;SDS011;61553;48.994;8.940;2022-08-21T13:38:42;7.22;;;3.63;;
32321;SDS011;61553;48.994;8.940;2022-08-21T13:41:19;6.95;;;2.95;;
32321;SDS011;61553;48.994;8.940;2022-08-21T13:43:50;9.88;;;3.45;;
32321;SDS011;61553;48.994;8.940;2022-08-21T13:46:22;6.88;;;3.13;;
32321;SDS011;61553;48.994;8.940;2022-08-21T13:48:51;11.70;;;3.13;;
32321;SDS011;61553;48.994;8.940;2022-08-21T13:51:19;8.73;;;3.55;;
32321;SDS011;61553;48.994;8.940;2022-08-21T13:53:49;7.82;;;3.00;;
32321;SDS011;61553;48.994;8.940;2022-08-21T13:56:26;8.60;;;3.10;;
32321;SDS011;61553;48.994;8.940;2022-08-21T13:58:58;9.15;;;3.40;;
32321;SDS011;61553;48.994;8.940;2022-08-21T14:07:14;6.22;;;3.15;;
32321;SDS011;61553;48.994;8.940;2022-08-21T14:09:45;8.50;;;3.20;;
32321;SDS011;61553;48.994;8.940;2022-08-21T14:12:16;7.85;;;3.05;;
32321;SDS011;61553;48.994;8.940;2022-08-21T14:14:49;7.55;;;3.50;;
32321;SDS011;61553;48.994;8.940;2022-08-21T14:17:27;5.00;;;2.72;;
32321;SDS011;61553;48.994;8.940;2022-08-21T14:19:54;5.93;;;2.63;;
32321;SDS011;61553;48.994;8.940;2022-08-21T14:25:48;6.03;;;2.55;;
32321;SDS011;61553;48.994;8.940;2022-08-21T14:30:30;6.30;;;2.90;;
32321;SDS011;61553;48.994;8.940;2022-08-21T14:32:58;7.45;;;2.90;;
32321;SDS011;61553;48.994;8.940;2022-08-21T14:35:25;6.10;;;2.70;;
32321;SDS011;61553;48.994;8.940;2022-08-21T14:37:52;4.82;;;2.70;;
32321;SDS011;61553;48.994;8.940;2022-08-21T14:40:19;11.70;;;3.55;;
32321;SDS011;61553;48.994;8.940;2022-08-21T14:42:47;8.23;;;2.85;;
32321;SDS011;61553;48.994;8.940;2022-08-21T14:47:53;8.40;;;2.90;;
32321;SDS011;61553;48.994;8.940;2022-08-21T14:50:19;6.45;;;2.92;;
32321;SDS011;61553;48.994;8.940;2022-08-21T14:52:45;7.90;;;2.80;;
32321;SDS011;61553;48.994;8.940;2022-08-21T14:55:11;6.28;;;2.78;;
32321;SDS011;61553;48.994;8.940;2022-08-21T14:57:45;6.15;;;2.83;;
32321;SDS011;61553;48.994;8.940;2022-08-21T15:00:14;7.63;;;2.90;;
32321;SDS011;61553;48.994;8.940;2022-08-21T15:02:42;6.97;;;2.72;;
32321;SDS011;61553;48.994;8.940;2022-08-21T15:05:08;6.53;;;3.25;;
32321;SDS011;61553;48.994;8.940;2022-08-21T15:07:34;6.50;;;2.88;;
32321;SDS011;61553;48.994;8.940;2022-08-21T15:10:00;7.95;;;2.60;;
32321;SDS011;61553;48.994;8.940;2022-08-21T15:12:26;7.03;;;3.08;;
32321;SDS011;61553;48.994;8.940;2022-08-21T15:14:52;6.60;;;2.70;;
32321;SDS011;61553;48.994;8.940;2022-08-21T15:17:17;6.45;;;2.95;;
32321;SDS011;61553;48.994;8.940;2022-08-21T15:19:44;8.25;;;2.97;;
32321;SDS011;61553;48.994;8.940;2022-08-21T15:22:09;5.18;;;2.47;;
32321;SDS011;61553;48.994;8.940;2022-08-21T15:24:35;7.80;;;2.80;;
32321;SDS011;61553;48.994;8.940;2022-08-21T15:27:01;6.40;;;2.55;;
32321;SDS011;61553;48.994;8.940;2022-08-21T15:29:29;6.43;;;2.70;;
32321;SDS011;61553;48.994;8.940;2022-08-21T15:31:59;7.45;;;2.97;;
32321;SDS011;61553;48.994;8.940;2022-08-21T15:34:28;6.82;;;3.22;;
32321;SDS011;61553;48.994;8.940;2022-08-21T15:36:56;6.63;;;3.10;;
32321;SDS011;61553;48.994;8.940;2022-08-21T15:39:22;4.90;;;2.45;;
32321;SDS011;61553;48.994;8.940;2022-08-21T15:41:50;8.45;;;2.90;;
32321;SDS011;61553;48.994;8.940;2022-08-21T15:44:15;5.47;;;2.75;;
32321;SDS011;61553;48.994;8.940;2022-08-21T15:46:42;6.32;;;2.40;;
32321;SDS011;61553;48.994;8.940;2022-08-21T15:49:09;6.63;;;3.80;;
32321;SDS011;61553;48.994;8.940;2022-08-21T15:51:36;7.70;;;3.40;;
32321;SDS011;61553;48.994;8.940;2022-08-21T15:54:01;5.80;;;2.60;;
32321;SDS011;61553;48.994;8.940;2022-08-21T15:56:32;5.57;;;2.78;;
32321;SDS011;61553;48.994;8.940;2022-08-21T15:59:02;4.63;;;2.35;;
32321;SDS011;61553;48.994;8.940;2022-08-21T16:01:34;5.88;;;2.78;;
32321;SDS011;61553;48.994;8.940;2022-08-21T16:04:01;8.57;;;2.88;;
32321;SDS011;61553;48.994;8.940;2022-08-21T16:06:28;5.20;;;2.30;;
32321;SDS011;61553;48.994;8.940;2022-08-21T16:08:54;8.43;;;3.10;;
32321;SDS011;61553;48.994;8.940;2022-08-21T16:11:19;7.57;;;2.70;;
32321;SDS011;61553;48.994;8.940;2022-08-21T16:13:45;6.10;;;2.70;;
32321;SDS011;61553;48.994;8.940;2022-08-21T16:16:13;7.50;;;2.75;;
32321;SDS011;61553;48.994;8.940;2022-08-21T16:18:42;5.97;;;2.42;;
32321;SDS011;61553;48.994;8.940;2022-08-21T16:21:08;8.23;;;2.92;;
32321;SDS011;61553;48.994;8.940;2022-08-21T16:23:34;8.68;;;2.95;;
32321;SDS011;61553;48.994;8.940;2022-08-21T16:26:04;5.22;;;2.63;;
32321;SDS011;61553;48.994;8.940;2022-08-21T16:28:30;6.40;;;2.50;;
32321;SDS011;61553;48.994;8.940;2022-08-21T16:30:58;7.28;;;2.90;;
32321;SDS011;61553;48.994;8.940;2022-08-21T16:33:33;6.68;;;2.92;;
32321;SDS011;61553;48.994;8.940;2022-08-21T16:36:05;5.22;;;2.50;;
32321;SDS011;61553;48.994;8.940;2022-08-21T16:38:32;8.48;;;2.63;;